• Join FlightAware (Why Join?)
  • Login
  • US Flag 
04:06AM EST


 

Airport Tracker/Info


-or-


 

Live Flight TrackerFlight Track Log ✈ SKW5387 ✈ 01-Jun-2012 ✈ KDEN - CYYC

Flight Track Log - Related Links

Times and Time Zones

All times are in EDT time to prevent confusion due to time zone crossing. See the SKW5387 flight status page for this flight to view local times or setup timezone preferences in your user account.

Time Position Orientation Groundspeed Altitude Reporting Facility
EDT Latitude Longitude Course Direction KTS MPH feet Rate Location/Type
06:37PM 39.8919 -104.6521 318° Northwest  Level FlightAware Approximate
06:37PM 39.9333 -104.7000 North 211 243 7,000  Level Denver TRACON
06:42PM 40.2975 -104.6575 353° North 339 390 14,000 1,500 Climbing Denver Center
06:43PM 40.3964 -104.6739 355° North 336 387 15,400 1,440 Climbing Denver Center
06:44PM 40.4897 -104.6844 354° North 337 388 17,000 1,200 Climbing Denver Center
06:45PM 40.5922 -104.6975 354° North 343 395 18,000 1,140 Climbing Denver Center
06:46PM 40.6892 -104.7100 354° North 350 403 19,400 1,260 Climbing Denver Center
06:47PM 40.7911 -104.7231 354° North 343 395 20,700 960 Climbing Denver Center
06:48PM 40.8886 -104.7358 355° North 346 398 21,500 720 Climbing Denver Center
06:49PM 40.9886 -104.7478 356° North 353 406 22,300 720 Climbing Denver Center
06:50PM 41.0933 -104.7569 355° North 359 413 23,100 780 Climbing Denver Center
06:51PM 41.2058 -104.7706 330° Northwest 363 418 24,000 780 Climbing Denver Center
06:52PM 41.2886 -104.8336 330° Northwest 358 412 24,800 780 Climbing Denver Center
06:53PM 41.3844 -104.9067 329° Northwest 353 406 25,700 720 Climbing Denver Center
06:54PM 41.4664 -104.9722 329° Northwest 357 411 26,400 720 Climbing Denver Center
06:55PM 41.5614 -105.0492 329° Northwest 357 411 27,300 720 Climbing Denver Center
06:56PM 41.6433 -105.1139 329° Northwest 357 411 27,900 540 Climbing Denver Center
06:57PM 41.7386 -105.1894 329° Northwest 357 411 28,500 480 Climbing Denver Center
06:58PM 41.8217 -105.2572 329° Northwest 361 415 29,000 480 Climbing Denver Center
06:59PM 41.9197 -105.3358 329° Northwest 365 420 29,600 480 Climbing Denver Center
07:00PM 42.0036 -105.4044 329° Northwest 367 422 30,100 600 Climbing Denver Center
07:02PM 42.1003 -105.4817 329° Northwest 363 418 30,900 720 Climbing Denver Center
07:03PM 42.1789 -105.5458 329° Northwest 351 404 31,600 480 Climbing Denver Center
07:04PM 42.2694 -105.6203 329° Northwest 343 395 32,000 180 Climbing Denver Center
07:05PM 42.3494 -105.6858 329° Northwest 347 399 32,000  Level Denver Center
07:06PM 42.4469 -105.7650 328° Northwest 360 414 32,000  Level Denver Center
07:07PM 42.5314 -105.8358 329° Northwest 368 423 32,000  Level Denver Center
07:08PM 42.6300 -105.9178 329° Northwest 370 426 32,000  Level Denver Center
07:09PM 42.7139 -105.9875 329° Northwest 370 426 32,000  Level Denver Center
07:10PM 42.8136 -106.0700 329° Northwest 373 429 32,000  Level Denver Center
07:11PM 42.8986 -106.1400 329° Northwest 372 428 32,000  Level Denver Center
07:12PM 43.0003 -106.2239 328° Northwest 378 435 32,000  Level Denver Center
07:13PM 43.0858 -106.2967 329° Northwest 378 435 32,000  Level Denver Center
07:14PM 43.1875 -106.3811 328° Northwest 381 438 32,000  Level Denver Center
07:15PM 43.2736 -106.4558 328° Northwest 382 440 32,000  Level Denver Center
07:16PM 43.3747 -106.5414 327° Northwest 384 442 32,000  Level Denver Center
07:17PM 43.4178 -106.5797 328° Northwest 384 442 32,000  Level Salt Lake Center
07:18PM 43.5208 -106.6672 328° Northwest 388 447 32,000  Level Salt Lake Center
07:19PM 43.6092 -106.7442 328° Northwest 391 450 32,000  Level Salt Lake Center
07:20PM 43.7128 -106.8322 327° Northwest 392 451 32,000  Level Salt Lake Center
07:21PM 43.8042 -106.9153 327° Northwest 387 445 32,000  Level Salt Lake Center
07:22PM 43.8900 -106.9922 329° Northwest 385 443 32,000  Level Salt Lake Center
07:23PM 43.9783 -107.0667 329° Northwest 387 445 32,000  Level Salt Lake Center
07:24PM 44.0822 -107.1528 328° Northwest 388 447 32,000  Level Salt Lake Center
07:25PM 44.1686 -107.2294 328° Northwest 386 444 32,000  Level Salt Lake Center
07:26PM 44.2694 -107.3189 327° Northwest 385 443 32,000  Level Salt Lake Center
07:27PM 44.3553 -107.3956 328° Northwest 384 442 32,000  Level Salt Lake Center
07:28PM 44.4556 -107.4847 328° Northwest 383 441 32,000  Level Salt Lake Center
07:29PM 44.5422 -107.5611 328° Northwest 384 442 32,000  Level Salt Lake Center
07:30PM 44.6431 -107.6503 328° Northwest 385 443 32,000  Level Salt Lake Center
07:31PM 44.7289 -107.7272 328° Northwest 384 442 32,000  Level Salt Lake Center
07:32PM 44.8281 -107.8150 328° Northwest 384 442 32,000  Level Salt Lake Center
07:33PM 44.9275 -107.9044 327° Northwest 390 449 32,000  Level Salt Lake Center
07:34PM 45.0139 -107.9831 327° Northwest 391 450 32,000  Level Salt Lake Center
07:35PM 45.1097 -108.0728 328° Northwest 370 426 32,000  Level Salt Lake Center
07:36PM 45.1964 -108.1511 327° Northwest 382 440 32,000  Level Salt Lake Center
07:37PM 45.2944 -108.2428 327° Northwest 380 437 32,000  Level Salt Lake Center
07:38PM 45.3792 -108.3211 327° Northwest 380 437 32,000  Level Salt Lake Center
07:39PM 45.4781 -108.4128 327° Northwest 379 436 32,000  Level Salt Lake Center
07:40PM 45.5617 -108.4903 327° Northwest 376 433 32,000  Level Salt Lake Center
07:41PM 45.6589 -108.5814 326° Northwest 375 432 32,000  Level Salt Lake Center
07:43PM 45.7411 -108.6611 327° Northwest 375 432 32,000  Level Salt Lake Center
07:44PM 45.8258 -108.7411 327° Northwest 381 438 32,000  Level Salt Lake Center
07:45PM 45.9244 -108.8319 327° Northwest 377 434 32,000  Level Salt Lake Center
07:46PM 46.0078 -108.9103 327° Northwest 375 432 32,000  Level Salt Lake Center
07:47PM 46.1047 -109.0019 327° Northwest 374 430 32,000  Level Salt Lake Center
07:48PM 46.1889 -109.0819 326° Northwest 377 434 32,000  Level Salt Lake Center
07:49PM 46.2853 -109.1747 327° Northwest 374 430 32,000  Level Salt Lake Center
07:50PM 46.3692 -109.2550 327° Northwest 376 433 32,000  Level Salt Lake Center
07:51PM 46.4672 -109.3492 326° Northwest 378 435 32,000  Level Salt Lake Center
07:52PM 46.5506 -109.4314 324° Northwest 378 435 32,000  Level Salt Lake Center
07:53PM 46.6469 -109.5317 327° Northwest 381 438 32,000  Level Salt Lake Center
07:54PM 46.7250 -109.6053 328° Northwest 382 440 32,000  Level Salt Lake Center
07:55PM 46.8328 -109.7050 326° Northwest 384 442 32,000  Level Salt Lake Center
07:56PM 46.9208 -109.7936 326° Northwest 385 443 32,000  Level Salt Lake Center
07:57PM 47.0092 -109.8811 325° Northwest 385 443 32,000  Level Salt Lake Center
07:58PM 47.0967 -109.9697 326° Northwest 384 442 32,000  Level Salt Lake Center
07:59PM 47.1847 -110.0583 325° Northwest 385 443 32,000  Level Salt Lake Center
08:00PM 47.2892 -110.1681 326° Northwest 386 444 32,000  Level Salt Lake Center
08:01PM 47.3775 -110.2553 326° Northwest 384 442 32,000  Level Salt Lake Center
08:02PM 47.4656 -110.3442 327° Northwest 385 443 32,000  Level Salt Lake Center
08:03PM 47.5553 -110.4317 325° Northwest 387 445 32,000 -60 Level Salt Lake Center
08:04PM 47.6428 -110.5225 325° Northwest 388 447 31,900  Descending Salt Lake Center
08:05PM 47.7475 -110.6303 325° Northwest 386 444 32,000  Climbing Salt Lake Center
08:06PM 47.8339 -110.7206 325° Northwest 384 442 32,000  Level Salt Lake Center
08:07PM 47.9208 -110.8100 325° Northwest 384 442 32,000  Level Salt Lake Center
08:08PM 48.0067 -110.9000 325° Northwest 382 440 32,000  Level Salt Lake Center
08:09PM 48.1103 -111.0089 325° Northwest 382 440 32,000  Level Salt Lake Center
08:11PM 48.1978 -111.1003 325° Northwest 384 442 32,000  Level Salt Lake Center
08:12PM 48.2850 -111.1933 325° Northwest 387 445 32,000  Level Salt Lake Center
08:13PM 48.3725 -111.2858 325° Northwest 386 444 32,000  Level Salt Lake Center
08:14PM 48.4597 -111.3789 325° Northwest 387 445 32,000  Level Salt Lake Center
08:15PM 48.5647 -111.4906 325° Northwest 387 445 32,000  Level Salt Lake Center
08:16PM 48.6528 -111.5853 285° West 388 447 32,000  Level Salt Lake Center
08:16PM 48.6667 -111.6667 331° Northwest 380 437 32,000  Level Edmonton Center
08:17PM 48.7667 -111.7500 322° Northwest 390 449 32,000  Level Edmonton Center
08:18PM 48.8500 -111.8500 327° Northwest 380 437 32,000  Level Edmonton Center
08:19PM 48.9333 -111.9333 322° Northwest 380 437 32,000  Level Edmonton Center
08:20PM 49.0167 -112.0333 323° Northwest 380 437 32,000  Level Edmonton Center
08:21PM 49.1167 -112.1500 327° Northwest 390 449 32,000  Level Edmonton Center
08:22PM 49.2000 -112.2333 322° Northwest 390 449 32,000  Level Edmonton Center
08:23PM 49.2833 -112.3333 332° Northwest 390 449 32,000  Level Edmonton Center
08:24PM 49.3833 -112.4167 316° Northwest 380 437 32,000  Level Edmonton Center
08:25PM 49.4500 -112.5167 323° Northwest 380 437 32,000  Level Edmonton Center
08:26PM 49.5500 -112.6333 333° Northwest 380 437 32,000  Level Edmonton Center
08:27PM 49.6333 -112.7000 331° Northwest 390 449 32,000 -60 Level Edmonton Center
08:28PM 49.7500 -112.8000 333° Northwest 390 449 31,900  Descending Edmonton Center
08:29PM 49.8333 -112.8667 332° Northwest 390 449 32,000 -840 Climbing Edmonton Center
08:30PM 49.9333 -112.9500 332° Northwest 400 460 30,300 -2,400 Descending Edmonton Center
08:31PM 50.0333 -113.0333 337° Northwest 410 472 27,300 -3,000 Descending Edmonton Center
08:32PM 50.1333 -113.1000 327° Northwest 400 460 24,400 -3,000 Descending Edmonton Center
08:33PM 50.2333 -113.2000 337° Northwest 420 483 21,300 -3,000 Descending Edmonton Center
08:34PM 50.3333 -113.2667 328° Northwest 400 460 18,400 -3,180 Descending Edmonton Center
08:35PM 50.4333 -113.3667 333° Northwest 380 437 15,000 -3,180 Descending Edmonton Center
08:36PM 50.5167 -113.4333 335° Northwest 370 426 12,100 -1,560 Descending Edmonton Center
08:37PM 50.5833 -113.4833 328° Northwest 300 345 11,900 -900 Descending Edmonton Center
08:38PM 50.6500 -113.5500 342° North 250 288 10,400 -1,380 Descending Edmonton Center
08:39PM 50.7167 -113.5833 North 240 276 9,200 -1,260 Descending Edmonton Center
08:40PM 50.7833 -113.5667 351° North 250 288 7,900 -1,200 Descending Edmonton Center
08:41PM 50.8500 -113.5833 351° North 250 288 6,800 -720 Descending Edmonton Center
08:42PM 50.9167 -113.6000 317° Northwest 230 265 6,500 -180 Descending Edmonton Center
08:43PM 50.9500 -113.6500 308° West 170 196 6,500  Level Edmonton Center
08:44PM 50.9833 -113.7167 270° West 160 184 6,500  Level Edmonton Center
08:45PM 50.9833 -113.7667 308° West 160 184 6,500 -60 Level Edmonton Center
08:46PM 51.0167 -113.8333 308° West 150 173 6,400 -120 Descending Edmonton Center